Pagrindinis puslapis
METAR-TAF:

METAR-TAF

Oro uostai :

Lechfeld, Vokietija

platuma: 48-11N, ilguma: 010-52E, Aukštis: 555 m

Dabartinis oras

Ataskaita buvo paskelbta 39 minutes, ne 00:20 UTC
Vėjas 4 kt iš Šiaurės/Šiaurės Rytų
Temperatūra 5°C
Drėgmė 70%
Slėgis 1017 hPa
Matomumas: 8000 m

METAR: ETSL 290020Z AUTO 02004KT 8000 // ////// 05/M00 Q1017 ///

Laikas: 01:59 (00:59 UTC)


TAF: trūkstamas

Orai ataskaitas ir orų prognozės (METAR, TAF).

turimą stotys yra geltonos ir raudonos taškus žemėlapyje.

Perkelti pele per norėdami pamatyti stoties vardą.

Tada spustelėkite, norėdami matyti oro stebėjimo ir prognozės.

Norėdami pakeisti žemėlapį: spustelėkite ant žalios mygtukų su juodo kryžiaus žemyn,; žalią mygtuką su brūkšneliu, jei norite nutolinti; arba žalių rodyklių gretimoms žemėlapius.


METAR-TAF: